Time;durP1;ratioP1;P1;durP2;ratioP2;P2;SDS_P1;SDS_P2;PMS_P1;PMS_P2;Temp;Humidity;BMP_temperature;BMP_pressure;BME280_temperature;BME280_humidity;BME280_pressure;Samples;Min_cycle;Max_cycle;Signal;HPM_P1;HPM_P2
2023/03/07 00:02:24;;;;;;;16.83;6.65;;;;;;;4.81;100.00;99695.22;4990327;28;20031;-50
2023/03/07 00:04:50;;;;;;;11.23;6.07;;;;;;;4.47;100.00;99630.09;4991264;28;20041;-48
2023/03/07 00:07:15;;;;;;;12.18;5.45;;;;;;;5.15;100.00;99777.75;4991031;28;20022;-49
2023/03/07 00:09:41;;;;;;;10.57;6.10;;;;;;;5.20;100.00;99755.00;4990424;28;20038;-48
2023/03/07 00:12:07;;;;;;;11.02;5.95;;;;;;;5.21;100.00;99747.13;4991729;28;20030;-50
2023/03/07 00:14:33;;;;;;;11.77;5.55;;;;;;;5.02;100.00;99705.03;4994265;28;20506;-51
2023/03/07 00:16:58;;;;;;;11.65;5.35;;;;;;;5.01;100.00;99697.28;4994590;28;20081;-46
2023/03/07 00:19:24;;;;;;;14.95;5.65;;;;;;;5.30;100.00;99743.41;4994913;28;20141;-48
2023/03/07 00:21:49;;;;;;;13.88;5.22;;;;;;;5.26;100.00;99734.81;5010156;28;20070;-51
2023/03/07 00:24:15;;;;;;;11.38;5.30;;;;;;;5.28;100.00;99743.47;4993843;28;20038;-46
2023/03/07 00:26:40;;;;;;;6.97;4.78;;;;;;;4.90;100.00;99687.13;4994550;28;20516;-48
2023/03/07 00:29:07;;;;;;;15.70;5.15;;;;;;;5.27;100.00;99761.75;4994673;28;20037;-48
2023/03/07 00:31:32;;;;;;;14.13;5.70;;;;;;;4.91;100.00;99701.88;4994937;28;20066;-47
2023/03/07 00:33:58;;;;;;;9.52;4.60;;;;;;;5.22;100.00;99753.22;4994707;28;20458;-49
2023/03/07 00:36:23;;;;;;;10.88;5.25;;;;;;;5.15;100.00;99776.00;4994562;28;20089;-52
2023/03/07 00:38:50;;;;;;;13.18;5.22;;;;;;;3.92;100.00;99583.81;4994557;28;20073;-48
2023/03/07 00:41:26;;;;;;;10.25;4.72;;;;;;;5.16;100.00;99743.81;5002092;28;20039;-52
2023/03/07 00:43:53;;;;;;;11.43;4.55;;;;;;;5.18;100.00;99749.81;4993117;28;20034;-48
2023/03/07 00:46:20;;;;;;;13.55;4.55;;;;;;;5.20;100.00;99762.81;5008596;28;20168;-45
2023/03/07 00:48:45;;;;;;;8.82;4.65;;;;;;;5.24;100.00;99749.66;5012878;28;20034;-47
2023/03/07 00:51:12;;;;;;;16.35;4.55;;;;;;;5.21;100.00;99760.19;5013654;28;20064;-47
2023/03/07 00:53:38;;;;;;;9.45;3.78;;;;;;;3.97;100.00;99539.44;5013770;28;20493;-49
2023/03/07 00:56:06;;;;;;;10.68;3.65;;;;;;;4.81;100.00;99683.94;5012613;28;20124;-49
2023/03/07 00:58:34;;;;;;;9.25;3.47;;;;;;;5.11;100.00;99745.66;5013662;28;20517;-48
2023/03/07 01:01:00;;;;;;;8.35;2.95;;;;;;;5.08;100.00;99749.22;5004831;28;20117;-49
2023/03/07 01:03:25;;;;;;;7.05;2.22;;;;;;;5.03;100.00;99734.59;4994075;28;20113;-50
2023/03/07 01:05:51;;;;;;;6.90;2.40;;;;;;;4.55;100.00;99663.81;4994114;28;20034;-47
2023/03/07 01:08:18;;;;;;;9.07;2.90;;;;;;;4.68;100.00;99692.97;4992676;28;20040;-50
2023/03/07 01:10:43;;;;;;;9.52;3.10;;;;;;;4.46;100.00;99659.69;4993615;28;20404;-46
2023/03/07 01:13:10;;;;;;;8.80;3.00;;;;;;;4.44;100.00;99665.81;4992310;28;20030;-48
2023/03/07 01:15:36;;;;;;;9.23;2.42;;;;;;;4.79;100.00;99738.72;4993509;28;20038;-46
2023/03/07 01:18:02;;;;;;;15.07;2.30;;;;;;;4.22;100.00;99686.34;4993741;28;20397;-49
2023/03/07 01:20:31;;;;;;;10.70;2.55;;;;;;;4.31;100.00;99648.78;4992525;28;20047;-49
2023/03/07 01:22:56;;;;;;;12.15;3.47;;;;;;;4.76;100.00;99719.72;4991903;28;20074;-53
2023/03/07 01:25:21;;;;;;;10.10;2.15;;;;;;;4.29;100.00;99637.56;4991127;28;20454;-49
2023/03/07 01:27:47;;;;;;;9.70;2.25;;;;;;;4.71;100.00;99727.63;4993347;28;20085;-49
2023/03/07 01:30:12;;;;;;;7.93;2.08;;;;;;;4.65;100.00;99717.38;4993848;28;20122;-50
2023/03/07 01:32:38;;;;;;;11.75;2.30;;;;;;;4.14;100.00;99631.00;4991027;28;20050;-50
2023/03/07 01:35:03;;;;;;;11.20;1.98;;;;;;;4.29;100.00;99648.00;5008573;28;20117;-48
2023/03/07 01:37:29;;;;;;;7.90;1.88;;;;;;;4.27;100.00;99655.81;4992331;28;20065;-50
2023/03/07 01:39:54;;;;;;;12.95;2.38;;;;;;;4.63;100.00;99700.94;4993355;28;20070;-49
2023/03/07 01:42:20;;;;;;;12.18;2.08;;;;;;;3.51;100.00;99499.88;4992995;28;20031;-49
2023/03/07 01:45:04;;;;;;;11.70;2.78;;;;;;;4.78;100.00;99704.88;4992169;28;20026;-49
2023/03/07 01:47:29;;;;;;;5.40;1.40;;;;;;;4.40;100.00;99631.19;4992581;28;20038;-48
2023/03/07 01:49:55;;;;;;;12.38;1.80;;;;;;;4.83;100.00;99700.38;4992274;28;20513;-48
2023/03/07 01:52:24;;;;;;;5.07;1.58;;;;;;;4.52;100.00;99637.81;4992081;28;20188;-49
2023/03/07 01:54:56;;;;;;;8.43;2.42;;;;;;;4.49;100.00;99624.88;4993112;28;20030;-48
2023/03/07 01:57:25;;;;;;;10.93;2.08;;;;;;;4.53;100.00;99621.25;4993195;28;20061;-50
2023/03/07 01:59:54;;;;;;;8.57;2.03;;;;;;;4.92;100.00;99687.97;4992056;28;20057;-47
2023/03/07 02:02:21;;;;;;;14.57;2.38;;;;;;;4.84;100.00;99676.03;4991689;28;20034;-49
2023/03/07 02:05:09;;;;;;;9.30;2.20;;;;;;;4.91;100.00;99694.06;5002216;28;20041;-48
2023/03/07 02:07:39;;;;;;;11.00;2.00;;;;;;;4.74;100.00;99665.00;5012415;28;20037;-47
2023/03/07 02:10:06;;;;;;;12.67;2.77;;;;;;;4.50;100.00;99632.63;5012326;28;20041;-49
2023/03/07 02:12:31;;;;;;;11.48;2.53;;;;;;;4.85;100.00;99690.75;5012469;28;20181;-48
2023/03/07 02:14:56;;;;;;;9.52;2.40;;;;;;;4.84;100.00;99682.13;5010936;28;20552;-49
2023/03/07 02:17:24;;;;;;;8.20;2.42;;;;;;;4.41;100.00;99613.78;5011072;28;20037;-47
2023/03/07 02:20:23;;;;;;;9.43;2.75;;;;;;;4.86;100.00;99676.84;5010404;28;20054;-48
2023/03/07 02:22:48;;;;;;;7.85;2.47;;;;;;;3.57;100.00;99474.56;4995975;28;20046;-49
2023/03/07 02:25:24;;;;;;;11.32;3.03;;;;;;;4.81;100.00;99668.31;4991534;28;20497;-50
2023/03/07 02:27:51;;;;;;;14.10;3.33;;;;;;;4.83;100.00;99685.59;4992855;28;20041;-54
2023/03/07 02:30:18;;;;;;;6.82;2.97;;;;;;;4.59;100.00;99615.03;4974734;28;20046;-50
2023/03/07 02:32:43;;;;;;;8.35;2.90;;;;;;;4.84;100.00;99668.22;4992759;28;20129;-52
2023/03/07 02:35:34;;;;;;;12.52;4.10;;;;;;;4.87;100.00;99671.59;4992401;28;20521;-49
2023/03/07 02:38:02;;;;;;;10.57;3.17;;;;;;;4.92;100.00;99661.88;4991462;28;20590;-48
2023/03/07 02:40:28;;;;;;;11.75;2.92;;;;;;;4.51;100.00;99595.25;4992163;28;20041;-49
2023/03/07 02:42:56;;;;;;;13.85;3.70;;;;;;;4.88;100.00;99664.59;4991101;28;20035;-52
2023/03/07 02:45:21;;;;;;;10.43;4.05;;;;;;;4.88;100.00;99672.44;4992193;28;20117;-49
2023/03/07 02:47:46;;;;;;;6.50;3.50;;;;;;;4.53;100.00;99606.50;5007382;28;20201;-49
2023/03/07 02:50:13;;;;;;;9.45;3.35;;;;;;;4.88;100.00;99667.22;4992278;28;20452;-51
2023/03/07 02:52:39;;;;;;;10.18;3.30;;;;;;;4.91;100.00;99683.63;4992377;28;20030;-50
2023/03/07 02:55:06;;;;;;;14.23;4.20;;;;;;;4.78;100.00;99650.13;4992112;28;20108;-48
2023/03/07 02:57:32;;;;;;;13.40;3.92;;;;;;;4.78;100.00;99650.13;4990149;28;20563;-47
2023/03/07 02:59:57;;;;;;;11.98;3.67;;;;;;;4.83;100.00;99659.53;4992370;28;20138;-48
2023/03/07 03:02:22;;;;;;;9.20;3.72;;;;;;;4.47;100.00;99600.59;5007194;28;20038;-49
2023/03/07 03:04:47;;;;;;;6.47;3.70;;;;;;;4.76;100.00;99644.13;4991763;28;20027;-49
2023/03/07 03:07:13;;;;;;;12.52;3.88;;;;;;;4.78;100.00;99648.38;4991499;28;20035;-47
2023/03/07 03:09:38;;;;;;;11.25;3.60;;;;;;;4.50;100.00;99598.75;4991755;28;20039;-48
2023/03/07 03:12:04;;;;;;;10.43;4.57;;;;;;;4.78;100.00;99645.78;4992233;28;20038;-48
2023/03/07 03:14:29;;;;;;;11.18;3.72;;;;;;;4.81;100.00;99634.41;4991190;28;20398;-48
2023/03/07 03:16:54;;;;;;;12.90;4.30;;;;;;;4.43;100.00;99584.22;4991800;28;20474;-47
2023/03/07 03:19:20;;;;;;;9.05;4.35;;;;;;;4.36;100.00;99567.03;4992023;28;20042;-47
2023/03/07 03:21:45;;;;;;;6.55;3.35;;;;;;;4.49;100.00;99586.63;4991948;28;20037;-47
2023/03/07 03:24:11;;;;;;;7.93;4.15;;;;;;;4.73;100.00;99623.34;4990203;28;20102;-50
2023/03/07 03:26:37;;;;;;;5.68;3.60;;;;;;;4.79;100.00;99655.28;4990361;28;20406;-51
2023/03/07 03:29:03;;;;;;;8.15;4.13;;;;;;;4.38;100.00;99587.81;4990538;28;20347;-48
2023/03/07 03:31:29;;;;;;;9.07;4.30;;;;;;;4.32;100.00;99568.00;5006558;28;20482;-46
2023/03/07 03:33:57;;;;;;;9.18;4.00;;;;;;;4.43;100.00;99606.78;4990673;28;20045;-49
2023/03/07 03:36:24;;;;;;;7.20;3.55;;;;;;;4.62;100.00;99641.88;4989579;28;20061;-46
2023/03/07 03:38:54;;;;;;;7.22;2.85;;;;;;;4.27;100.00;99597.66;4990471;28;20026;-47
2023/03/07 03:41:19;;;;;;;7.50;3.03;;;;;;;4.48;100.00;99646.59;4990700;28;20086;-48
2023/03/07 03:43:45;;;;;;;6.25;2.85;;;;;;;4.40;100.00;99641.59;4991787;28;20069;-49
2023/03/07 03:46:10;;;;;;;9.88;2.92;;;;;;;3.95;100.00;99575.94;4990588;28;20042;-48
2023/03/07 03:48:36;;;;;;;11.23;2.83;;;;;;;4.22;100.00;99616.03;4994304;28;20038;-48
2023/03/07 03:51:05;;;;;;;7.18;2.38;;;;;;;4.23;100.00;99643.75;4995277;28;20030;-49
2023/03/07 03:53:32;;;;;;;5.43;2.10;;;;;;;4.12;100.00;99621.50;4995377;28;20034;-45
2023/03/07 03:56:05;;;;;;;6.32;1.88;;;;;;;3.69;100.00;99562.72;4994847;28;20458;-47
2023/03/07 03:58:32;;;;;;;8.25;2.25;;;;;;;3.67;100.00;99556.72;4995446;28;20038;-47
2023/03/07 04:00:57;;;;;;;8.15;2.03;;;;;;;4.06;100.00;99632.09;5009658;28;20081;-48
2023/03/07 04:03:22;;;;;;;7.95;2.20;;;;;;;3.63;100.00;99560.25;4993037;28;20050;-47
2023/03/07 04:05:48;;;;;;;6.45;2.05;;;;;;;3.65;100.00;99562.84;4993661;28;20041;-47
2023/03/07 04:08:13;;;;;;;4.72;1.70;;;;;;;3.98;100.00;99617.50;4993910;28;20061;-49
2023/03/07 04:10:38;;;;;;;4.35;1.60;;;;;;;3.98;100.00;99611.44;4995171;28;20397;-49
2023/03/07 04:13:04;;;;;;;8.10;1.80;;;;;;;3.92;100.00;99595.97;4994048;28;20030;-50
2023/03/07 04:15:29;;;;;;;18.80;2.03;;;;;;;3.61;100.00;99543.00;4995097;28;20394;-48
2023/03/07 04:17:54;;;;;;;9.15;1.55;;;;;;;4.00;100.00;99616.63;4994664;28;20030;-47
2023/03/07 04:20:20;;;;;;;8.57;1.70;;;;;;;3.61;100.00;99537.78;4994828;28;20058;-46
2023/03/07 04:22:46;;;;;;;8.50;1.27;;;;;;;3.64;100.00;99546.38;4994644;28;20038;-50
2023/03/07 04:25:11;;;;;;;11.00;2.35;;;;;;;3.98;100.00;99598.44;4994944;28;20105;-50
2023/03/07 04:27:36;;;;;;;6.25;1.67;;;;;;;3.57;100.00;99533.53;4993311;28;20049;-46
2023/03/07 04:30:02;;;;;;;9.63;1.45;;;;;;;3.83;100.00;99580.59;4994955;28;20030;-51
2023/03/07 04:32:28;;;;;;;7.28;1.52;;;;;;;3.84;100.00;99579.69;4994625;28;20038;-51
2023/03/07 04:34:53;;;;;;;5.07;1.15;;;;;;;3.49;100.00;99535.47;5009448;28;20034;-48
2023/03/07 04:37:18;;;;;;;6.80;1.25;;;;;;;3.76;100.00;99586.84;4993883;28;20049;-51
2023/03/07 04:39:43;;;;;;;8.20;1.63;;;;;;;3.49;100.00;99548.47;4993885;28;20042;-48
2023/03/07 04:42:09;;;;;;;8.45;1.75;;;;;;;3.37;100.00;99528.81;4993798;28;20366;-48
2023/03/07 04:44:34;;;;;;;5.85;1.25;;;;;;;3.53;100.00;99561.41;4993665;28;20038;-51
2023/03/07 04:46:59;;;;;;;6.05;1.00;;;;;;;3.51;100.00;99564.91;4994438;28;20046;-46
2023/03/07 04:49:25;;;;;;;6.05;1.42;;;;;;;3.37;100.00;99531.44;4994324;28;20041;-52
2023/03/07 04:51:50;;;;;;;4.55;1.05;;;;;;;3.66;100.00;99586.22;4994401;28;20188;-47
2023/03/07 04:54:15;;;;;;;9.25;1.65;;;;;;;3.69;100.00;99588.75;4994292;28;20044;-53
2023/03/07 04:56:41;;;;;;;6.03;1.45;;;;;;;3.26;100.00;99515.22;4993857;28;20046;-54
2023/03/07 04:59:06;;;;;;;7.03;1.35;;;;;;;3.65;100.00;99588.88;4994252;28;20142;-51
2023/03/07 05:01:31;;;;;;;4.78;1.40;;;;;;;3.65;100.00;99586.28;4993932;28;20045;-47
2023/03/07 05:03:57;;;;;;;11.07;1.98;;;;;;;3.61;100.00;99590.69;4993054;28;20442;-51
2023/03/07 05:06:22;;;;;;;5.18;0.95;;;;;;;3.45;100.00;99581.50;4994363;28;20126;-48
2023/03/07 05:08:47;;;;;;;6.22;0.85;;;;;;;3.10;100.00;99532.94;4976540;28;20412;-48
2023/03/07 05:11:13;;;;;;;6.90;1.33;;;;;;;3.00;100.00;99539.25;4993507;28;20045;-47
2023/03/07 05:13:38;;;;;;;9.30;1.00;;;;;;;3.29;100.00;99611.38;5009247;28;20491;-48
2023/03/07 05:16:04;;;;;;;4.65;1.15;;;;;;;2.88;100.00;99552.50;4993768;28;20047;-49
2023/03/07 05:18:29;;;;;;;6.40;0.95;;;;;;;2.71;100.00;99550.28;4993492;28;20475;-46
2023/03/07 05:20:55;;;;;;;3.80;1.15;;;;;;;2.70;100.00;99545.09;4992232;28;20050;-50
2023/03/07 05:23:20;;;;;;;7.13;1.27;;;;;;;2.70;100.00;99558.94;4993967;28;20467;-48
2023/03/07 05:25:46;;;;;;;5.00;1.05;;;;;;;2.95;100.00;99618.22;5005425;28;20045;-46
2023/03/07 05:28:11;;;;;;;3.92;0.80;;;;;;;2.71;100.00;99572.81;5002439;28;20050;-50
2023/03/07 05:30:37;;;;;;;6.30;0.77;;;;;;;2.62;100.00;99554.78;4993115;28;20040;-49
2023/03/07 05:33:02;;;;;;;4.70;0.80;;;;;;;2.68;100.00;99584.13;4993776;28;20030;-49
2023/03/07 05:35:28;;;;;;;8.23;1.67;;;;;;;2.56;100.00;99580.91;4992199;28;20163;-47
2023/03/07 05:37:53;;;;;;;5.50;1.00;;;;;;;2.30;100.00;99545.06;4993545;28;20038;-49
2023/03/07 05:40:18;;;;;;;9.18;1.00;;;;;;;2.62;100.00;99633.59;4996838;28;20143;-47
2023/03/07 05:42:44;;;;;;;6.10;1.27;;;;;;;2.51;100.00;99619.94;5011481;28;20515;-50
2023/03/07 05:45:10;;;;;;;1.75;0.90;;;;;;;2.00;100.00;99554.28;4992119;28;20027;-49
2023/03/07 05:47:36;;;;;;;7.47;1.02;;;;;;;2.38;100.00;99626.25;4991782;28;20041;-48
2023/03/07 05:50:01;;;;;;;3.28;0.95;;;;;;;2.27;100.00;99617.81;4992878;28;20430;-49
2023/03/07 05:52:27;;;;;;;5.38;1.00;;;;;;;2.30;100.00;99635.94;4993430;28;20034;-48
2023/03/07 05:54:53;;;;;;;3.28;1.20;;;;;;;2.27;100.00;99633.41;4997747;28;20505;-51
2023/03/07 05:57:18;;;;;;;7.85;1.15;;;;;;;2.29;100.00;99623.81;5012781;28;20057;-50
2023/03/07 05:59:44;;;;;;;3.30;0.93;;;;;;;2.27;100.00;99617.81;5011496;28;20028;-51
2023/03/07 06:02:09;;;;;;;4.97;1.30;;;;;;;2.25;100.00;99624.75;4990919;28;20177;-49
2023/03/07 06:04:34;;;;;;;4.60;1.50;;;;;;;2.24;100.00;99610.09;5010723;28;20392;-49
2023/03/07 06:06:59;;;;;;;3.00;1.15;;;;;;;2.03;100.00;99579.31;5012406;28;20087;-50
2023/03/07 06:09:25;;;;;;;3.25;1.17;;;;;;;2.23;100.00;99611.81;5010367;28;20042;-48
2023/03/07 06:11:50;;;;;;;4.95;1.27;;;;;;;2.28;100.00;99610.88;5007438;28;20045;-50
2023/03/07 06:14:16;;;;;;;6.28;1.10;;;;;;;2.31;100.00;99609.06;5012280;28;20037;-50
2023/03/07 06:16:41;;;;;;;1.55;0.80;;;;;;;1.91;100.00;99545.78;5012175;28;20046;-51
2023/03/07 06:19:07;;;;;;;3.03;1.10;;;;;;;2.31;100.00;99613.44;4994316;28;20141;-51
2023/03/07 06:21:32;;;;;;;5.65;0.98;;;;;;;2.24;100.00;99608.34;4992944;28;20034;-49
2023/03/07 06:23:58;;;;;;;3.10;1.38;;;;;;;2.19;100.00;99602.34;4992436;28;20037;-50
2023/03/07 06:26:23;;;;;;;3.30;1.15;;;;;;;2.23;100.00;99611.81;5023726;28;20051;-51
2023/03/07 06:28:49;;;;;;;5.38;1.00;;;;;;;2.21;100.00;99610.13;5012315;28;20080;-52
2023/03/07 06:31:16;;;;;;;8.77;1.27;;;;;;;1.80;100.00;99543.41;5006619;28;20041;-52
2023/03/07 06:33:42;;;;;;;8.93;1.25;;;;;;;2.11;100.00;99593.88;4998995;28;20069;-48
2023/03/07 06:36:09;;;;;;;5.72;0.98;;;;;;;1.77;100.00;99540.00;4992513;28;20602;-48
2023/03/07 06:38:35;;;;;;;4.90;1.45;;;;;;;2.17;100.00;99601.53;4992475;28;20037;-51
2023/03/07 06:41:00;;;;;;;7.78;1.30;;;;;;;2.30;100.00;99620.34;4992195;28;20038;-51
2023/03/07 06:43:26;;;;;;;6.28;1.50;;;;;;;2.30;100.00;99622.09;4992333;28;20113;-48
2023/03/07 06:45:52;;;;;;;6.68;1.40;;;;;;;1.87;100.00;99541.56;4996467;28;20030;-50
2023/03/07 06:48:17;;;;;;;9.35;1.77;;;;;;;1.83;100.00;99530.38;5010619;28;20045;-49
2023/03/07 06:50:43;;;;;;;2.40;1.02;;;;;;;2.24;100.00;99607.50;4994813;28;20049;-52
2023/03/07 06:53:09;;;;;;;6.85;1.58;;;;;;;2.23;100.00;99617.00;4989975;28;20517;-54
2023/03/07 06:55:34;;;;;;;8.35;2.78;;;;;;;2.11;100.00;99596.47;4991607;28;20038;-50
2023/03/07 06:57:59;;;;;;;5.85;1.35;;;;;;;1.70;100.00;99539.25;5011071;28;20319;-49
2023/03/07 07:00:25;;;;;;;7.63;1.35;;;;;;;2.11;100.00;99618.97;5011284;28;20037;-50
2023/03/07 07:02:50;;;;;;;8.30;1.50;;;;;;;2.13;100.00;99627.59;5009531;28;20037;-49
2023/03/07 07:05:16;;;;;;;19.58;1.95;;;;;;;2.08;100.00;99616.41;5008593;28;20034;-50
2023/03/07 07:07:41;;;;;;;6.95;1.08;;;;;;;2.10;100.00;99638.03;4990958;28;20034;-50
2023/03/07 07:10:07;;;;;;;4.68;0.90;;;;;;;1.38;100.00;99498.31;4992425;28;20435;-50
2023/03/07 07:12:32;;;;;;;6.68;1.20;;;;;;;2.03;100.00;99624.28;4992071;28;20034;-49
2023/03/07 07:15:00;;;;;;;6.47;0.80;;;;;;;2.11;100.00;99625.00;4992242;28;20038;-49
2023/03/07 07:17:27;;;;;;;5.63;1.67;;;;;;;2.08;100.00;99621.59;4992223;28;20118;-51
2023/03/07 07:19:52;;;;;;;1.95;1.08;;;;;;;1.67;100.00;99557.44;4991460;28;20137;-47
2023/03/07 07:22:18;;;;;;;3.28;1.33;;;;;;;2.10;100.00;99628.47;4992825;28;20538;-53
2023/03/07 07:24:43;;;;;;;4.75;1.08;;;;;;;1.68;100.00;99554.84;4995991;28;20044;-50
2023/03/07 07:27:08;;;;;;;3.95;1.10;;;;;;;2.08;100.00;99630.25;5011508;28;20129;-55
2023/03/07 07:29:34;;;;;;;6.03;1.38;;;;;;;2.07;100.00;99640.69;5018404;28;20519;-53
2023/03/07 07:31:59;;;;;;;8.98;1.45;;;;;;;1.74;100.00;99586.75;5004546;28;20070;-55
2023/03/07 07:34:24;;;;;;;5.32;1.30;;;;;;;2.08;100.00;99645.84;4996350;28;20125;-54
2023/03/07 07:36:51;;;;;;;6.10;1.17;;;;;;;2.08;100.00;99637.19;5008101;28;20088;-48
2023/03/07 07:39:17;;;;;;;2.88;0.98;;;;;;;1.95;100.00;99615.78;5013044;28;20037;-48
2023/03/07 07:41:43;;;;;;;3.90;1.05;;;;;;;2.10;100.00;99651.84;5015498;28;20126;-50
2023/03/07 07:44:09;;;;;;;4.43;1.17;;;;;;;2.13;100.00;99640.56;5012380;28;20030;-54
2023/03/07 07:46:34;;;;;;;7.72;1.48;;;;;;;2.19;100.00;99637.84;4997095;28;20034;-50
2023/03/07 07:48:59;;;;;;;6.28;1.05;;;;;;;2.28;100.00;99647.25;4994575;28;20030;-53
2023/03/07 07:51:25;;;;;;;3.88;1.63;;;;;;;2.32;100.00;99649.75;4995720;28;20470;-53
2023/03/07 07:53:50;;;;;;;4.25;1.40;;;;;;;2.38;100.00;99635.78;4996111;28;20045;-48
2023/03/07 07:56:15;;;;;;;4.45;1.05;;;;;;;2.05;100.00;99583.59;4996148;28;20092;-53
2023/03/07 07:58:41;;;;;;;7.18;1.35;;;;;;;2.15;100.00;99584.28;4995846;28;20049;-53
2023/03/07 08:01:18;;;;;;;3.30;1.30;;;;;;;2.63;100.00;99663.00;4995997;28;20442;-54
2023/03/07 08:03:43;;;;;;;4.72;1.27;;;;;;;2.36;100.00;99601.22;5003217;28;20053;-52
2023/03/07 08:06:09;;;;;;;3.50;1.17;;;;;;;2.35;100.00;99579.56;5010433;28;20073;-53
2023/03/07 08:08:34;;;;;;;6.13;1.40;;;;;;;2.74;100.00;99655.88;4989307;28;20473;-56
2023/03/07 08:10:59;;;;;;;6.22;1.40;;;;;;;2.76;100.00;99647.16;5013594;28;20104;-53
2023/03/07 08:13:25;;;;;;;5.13;1.05;;;;;;;2.44;100.00;99583.72;5014299;28;20034;-53
2023/03/07 08:15:50;;;;;;;3.40;0.73;;;;;;;2.79;100.00;99644.50;5015011;28;20176;-51
2023/03/07 08:18:15;;;;;;;7.55;1.30;;;;;;;2.46;100.00;99580.22;5015028;28;20076;-52
2023/03/07 08:20:41;;;;;;;7.75;1.45;;;;;;;2.89;100.00;99644.31;5014874;28;20137;-49
2023/03/07 08:23:06;;;;;;;3.58;1.35;;;;;;;2.72;100.00;99613.47;5015050;28;20477;-53
2023/03/07 08:25:32;;;;;;;3.47;1.13;;;;;;;2.60;100.00;99585.13;5005000;28;20378;-52
2023/03/07 08:27:57;;;;;;;4.93;1.08;;;;;;;2.65;100.00;99591.97;5026613;28;20568;-52
2023/03/07 08:30:25;;;;;;;4.13;1.30;;;;;;;2.56;100.00;99560.97;5011051;28;20046;-55
2023/03/07 08:32:52;;;;;;;6.45;1.45;;;;;;;2.75;100.00;99577.88;5004437;28;20398;-52
2023/03/07 08:35:17;;;;;;;4.05;1.40;;;;;;;3.21;100.00;99652.31;5014729;28;20037;-51
2023/03/07 08:37:43;;;;;;;7.68;1.27;;;;;;;2.94;100.00;99580.97;5012318;28;20038;-52
2023/03/07 08:40:09;;;;;;;5.10;1.75;;;;;;;3.29;100.00;99646.06;5013436;28;20485;-52
2023/03/07 08:42:34;;;;;;;4.40;1.52;;;;;;;3.24;100.00;99640.06;5003451;28;20034;-53
2023/03/07 08:44:59;;;;;;;6.35;3.08;;;;;;;3.29;100.00;99643.44;5009996;28;20052;-53
2023/03/07 08:47:25;;;;;;;9.05;1.60;;;;;;;3.29;100.00;99640.84;5010112;28;20390;-54
2023/03/07 08:49:51;;;;;;;8.77;1.00;;;;;;;3.01;100.00;99592.06;5030056;28;20483;-52
2023/03/07 08:52:16;;;;;;;4.07;0.82;;;;;;;3.43;100.00;99640.53;5013813;28;20378;-50
2023/03/07 08:54:42;;;;;;;5.20;1.10;;;;;;;3.06;100.00;99580.69;5006756;28;20601;-51
2023/03/07 08:57:07;;;;;;;6.47;1.17;;;;;;;3.40;100.00;99648.41;5007921;28;20468;-51
2023/03/07 08:59:32;;;;;;;7.07;1.45;;;;;;;3.01;100.00;99576.47;5004410;28;20038;-54
2023/03/07 09:01:58;;;;;;;4.45;1.17;;;;;;;2.98;100.00;99569.59;4994223;28;20039;-55
2023/03/07 09:04:23;;;;;;;9.57;2.00;;;;;;;3.07;100.00;99592.78;4994507;28;20041;-52
2023/03/07 09:06:48;;;;;;;7.35;1.02;;;;;;;3.24;100.00;99613.25;4994513;28;20026;-55
2023/03/07 09:09:14;;;;;;;6.22;1.08;;;;;;;3.46;100.00;99640.47;4994060;28;20088;-54
2023/03/07 09:11:39;;;;;;;8.90;1.13;;;;;;;3.26;100.00;99599.31;4994376;28;20034;-53
2023/03/07 09:14:05;;;;;;;6.80;0.98;;;;;;;3.63;100.00;99651.34;4993261;28;20110;-54
2023/03/07 09:16:30;;;;;;;3.30;1.02;;;;;;;3.34;100.00;99591.31;4994331;28;20042;-53
2023/03/07 09:18:55;;;;;;;3.63;1.05;;;;;;;3.81;100.00;99650.06;4994508;28;20069;-51
2023/03/07 09:21:21;;;;;;;7.80;1.15;;;;;;;4.00;100.00;99653.06;4994481;28;20054;-51
2023/03/07 09:23:46;;;;;;;6.43;1.33;;;;;;;3.60;100.00;99565.53;5009348;28;20042;-50
2023/03/07 09:26:12;;;;;;;5.05;1.00;;;;;;;4.26;100.00;99651.50;4992670;28;20042;-50
2023/03/07 09:28:37;;;;;;;4.72;1.85;;;;;;;4.07;100.00;99606.00;4993866;28;20042;-50
2023/03/07 09:31:11;;;;;;;6.00;1.63;;;;;;;4.18;100.00;99650.00;4992378;28;20560;-51
2023/03/07 09:33:37;;;;;;;3.72;1.00;;;;;;;4.16;100.00;99652.66;5008412;28;20560;-51
2023/03/07 09:36:08;;;;;;;4.95;1.25;;;;;;;3.85;100.00;99594.44;5008778;28;20066;-52
2023/03/07 09:38:34;;;;;;;4.90;0.90;;;;;;;4.28;100.00;99686.22;4992263;28;20044;-52
2023/03/07 09:41:21;;;;;;;4.30;1.02;;;;;;;4.16;100.00;99664.81;4992364;28;20568;-52
2023/03/07 09:43:50;;;;;;;7.55;0.90;;;;;;;4.23;100.00;99685.44;4992686;28;20502;-53
2023/03/07 09:46:40;;;;;;;3.10;0.85;;;;;;;4.32;100.00;99680.00;4992691;28;20030;-49
2023/03/07 09:49:14;;;;;;;2.95;0.82;;;;;;;4.38;100.00;99679.84;4993464;28;20430;-50
2023/03/07 09:51:41;;;;;;;3.35;0.88;;;;;;;4.05;100.00;99614.75;4993210;28;20053;-53
2023/03/07 09:54:21;;;;;;;5.15;1.02;;;;;;;4.33;100.00;99691.28;5008737;28;20034;-49
2023/03/07 09:56:49;;;;;;;6.25;1.20;;;;;;;3.97;100.00;99691.28;4991586;28;20433;-55
2023/03/07 09:59:23;;;;;;;3.80;0.88;;;;;;;3.84;100.00;99687.28;5007947;28;20385;-49
2023/03/07 10:02:03;;;;;;;4.38;1.05;;;;;;;3.64;100.00;99673.88;4993474;28;20026;-52
2023/03/07 10:04:50;;;;;;;4.73;1.10;;;;;;;3.69;100.00;99687.63;5008417;28;20031;-48
2023/03/07 10:07:16;;;;;;;3.35;0.80;;;;;;;3.59;100.00;99686.13;4987628;28;20351;-55
2023/03/07 10:09:43;;;;;;;2.03;0.80;;;;;;;3.16;100.00;99607.31;4991823;28;20054;-53
2023/03/07 10:12:09;;;;;;;3.53;0.77;;;;;;;3.65;100.00;99682.53;5008013;28;20494;-53
2023/03/07 10:14:46;;;;;;;5.57;1.02;;;;;;;3.40;100.00;99604.19;4992824;28;20081;-49
2023/03/07 10:17:11;;;;;;;5.70;0.82;;;;;;;3.83;100.00;99679.50;5008322;28;20053;-50
2023/03/07 10:19:45;;;;;;;2.28;1.02;;;;;;;3.91;100.00;99667.19;4993095;28;20051;-52
2023/03/07 10:22:34;;;;;;;3.08;0.93;;;;;;;3.91;100.00;99677.59;4991569;28;20038;-50
2023/03/07 10:25:19;;;;;;;4.05;1.00;;;;;;;3.68;100.00;99685.91;4992878;28;20042;-50
2023/03/07 10:27:46;;;;;;;4.10;1.20;;;;;;;3.70;100.00;99698.91;4993017;28;20034;-49
2023/03/07 10:30:19;;;;;;;3.83;0.73;;;;;;;3.70;100.00;99711.91;4992672;28;20120;-50
2023/03/07 10:32:47;;;;;;;4.10;1.00;;;;;;;3.43;100.00;99653.53;4992373;28;20514;-51
2023/03/07 10:35:19;;;;;;;2.97;0.95;;;;;;;3.71;100.00;99700.59;4991429;28;20492;-51
2023/03/07 10:37:54;;;;;;;2.90;0.80;;;;;;;3.80;100.00;99683.03;4991313;28;20033;-50
2023/03/07 10:40:41;;;;;;;5.72;0.95;;;;;;;3.82;100.00;99677.81;4992581;28;20058;-50
2023/03/07 10:43:18;;;;;;;5.93;1.30;;;;;;;3.86;100.00;99695.03;4991055;28;20022;-50
2023/03/07 10:45:44;;;;;;;4.03;1.63;;;;;;;3.84;100.00;99691.63;5007425;28;20041;-51
2023/03/07 10:48:15;;;;;;;3.42;0.90;;;;;;;3.65;100.00;99685.97;4991114;28;20034;-51
2023/03/07 10:50:50;;;;;;;8.40;1.17;;;;;;;3.24;100.00;99615.84;4991212;28;20030;-51
2023/03/07 10:53:21;;;;;;;8.60;1.50;;;;;;;3.57;100.00;99656.69;5007360;28;20393;-54
2023/03/07 10:55:47;;;;;;;5.13;1.15;;;;;;;3.74;100.00;99688.38;4991041;28;20035;-52
2023/03/07 10:58:21;;;;;;;4.32;0.88;;;;;;;3.73;100.00;99691.03;4992237;28;20039;-52
2023/03/07 11:00:58;;;;;;;3.80;0.80;;;;;;;3.69;100.00;99703.25;4991000;28;20062;-53
2023/03/07 11:03:51;;;;;;;6.20;1.17;;;;;;;3.70;100.00;99717.13;4992563;28;20035;-52
2023/03/07 11:06:26;;;;;;;4.18;0.80;;;;;;;3.59;100.00;99693.91;4992523;28;20030;-54
2023/03/07 11:08:51;;;;;;;3.65;0.80;;;;;;;3.31;100.00;99643.41;4992433;28;20428;-54
2023/03/07 11:11:25;;;;;;;4.43;0.95;;;;;;;3.56;100.00;99687.94;4991790;28;20042;-51
2023/03/07 11:14:09;;;;;;;5.57;1.13;;;;;;;3.11;100.00;99627.38;5007650;28;20173;-49
2023/03/07 11:16:51;;;;;;;3.50;0.77;;;;;;;3.50;100.00;99701.09;4992223;28;20173;-53
2023/03/07 11:19:44;;;;;;;3.47;1.25;;;;;;;3.56;100.00;99699.19;4992030;28;20122;-50
2023/03/07 11:22:26;;;;;;;3.35;0.90;;;;;;;3.57;100.00;99706.13;4990106;28;20039;-57
2023/03/07 11:25:01;;;;;;;5.65;1.50;;;;;;;3.56;100.00;99665.38;4992313;28;20085;-53
2023/03/07 11:27:54;;;;;;;2.67;0.90;;;;;;;3.27;100.00;99611.41;4991996;28;20034;-52
2023/03/07 11:30:26;;;;;;;1.73;0.80;;;;;;;3.21;100.00;99601.13;4992294;28;20027;-54
2023/03/07 11:33:24;;;;;;;4.60;0.90;;;;;;;3.85;100.00;99693.34;4992211;28;20027;-53
2023/03/07 11:36:01;;;;;;;2.33;0.80;;;;;;;3.75;100.00;99689.22;4991992;28;20382;-50